Abbott Park, Illinois
Current Conditions -  °F | °C
As of 8:55 AM on Thursday 23 Oct 2014 (Local Time) from KUGN Reporting Station
Haze Haze  
Wind Chill: 40°   Ceiling: Unl
Heat Index: 43°   Visibility: 6mi
Dew Point: 39°   Wind: 5mph
Humidity: 86%   Direction: 210°SSW
Pressure: 30.21"   Gusts: NA
Location:  42.3271°N, 87.865°W
Report Text: KUGN 231355Z 21004KT 6SM BR CLR 06/04 A3021 RMK AO2 SLP238 T00610039
Loading
Personal Weather Stations






























Interactive Weather Map
Tropical Storm Tracking
New forecast layout! Learn more

10-Day Weather Forecast

Advertisements
Track Severe Weather on mobile